HKNW/WIL METAR and TAF weather

Enter ICAO airport designator
Station Type Date Time Source
HKNW METAR 2020/07/07 10:00 UTC NOAA

HKNW 071000Z 23007KT 9999 BKN023 21/13 Q1021


Station Type Date Time Source
HKNW Decoded METAR 2020/07/07 10:00 UTC NOAA

Nairobi / Wilson, Kenya (HKNW) 01-19S 036-49E 1679M
Jul 07, 2020 - 06:00 AM EDT / 2020.07.07 1000 UTC
Wind: from the SW (230 degrees) at 8 MPH (7 KT):0
Visibility: greater than 7 mile(s):0
Sky conditions: mostly cloudy
Temperature: 69 F (21 C)
Dew Point: 55 F (13 C)
Relative Humidity: 60%
Pressure (altimeter): 30.15 in. Hg (1021 hPa)
ob: HKNW 071000Z 23007KT 9999 BKN023 21/13 Q1021
cycle: 10

Station Type Date Time Source
HKNW TAF 2020/07/07 06:09 UTC NOAA

TAF TAF HKNW 070500Z 0706/0806 15010KT 9999 BKN024
BECMG 0720/0723 18005KT SCT019
BECMG 0800/0806 BKN015

Example: see airport list